Airfield :
LOGIN :

Register | Disclaimer

   EN    FR    IT 

 










Legend :    VFR   Marginal VFR   IFR   Intensive IFR   Very Intensive IFR
Visi :
Ceiling :
>= 8 km
>= 3000ft
5 to 8 km
1000 to 3000 ft
1500m to 5 km
500 to 1000 ft
800 to 1500m
200 to 500 ft
< 800m
< 200 ft
Symbols :   Thunderstorms  Fog  Heavy snow  Heavy precipitations  Wind > 20 kt
SIGMETs :     Misc.  Thunderstorms  Icing  Turbulence  Mountain Waves  Volcanic Ashes







- Airport Elevation : 1411 ft
- IATA code : ZHI


LSZG - Grenchen

CURRENT METAR :
  • 182250Z AUTO 20003KT 9999 FEW027 OVC110 02/01 Q1022

EXPIRED METARs :
  • 182220Z AUTO 23003KT 9999 BKN029 02/01 Q1023
  • 182150Z AUTO 19004KT 9999 NSC 03/01 Q1023
  • 182120Z AUTO 21005KT 9999 BKN028 SCT150 03/00 Q1023
  • 182050Z AUTO 22004KT 9999 OVC028 03/00 Q1023
  • 182020Z AUTO 26005KT 220V280 9999 BKN028 OVC160 03/M01 Q1023

TAF TAF LSZG
Valid from the 18 at 15:00 until the 19 at 00:00 UTC


181425Z 1815/1824 VRB03KT 9999 FEW034
TEMPO 1819/1824 4000 MIFG
ATIS : +41 32 396 96 33
No reported NOTAMs for that airfield.



MET'MAP, your aeronautical weather chart ! - Copyright ORBIFLY December 2007 - Disclaimer

ORBIFLY MET'MAP TEAM :

Programming & Development : Alexandra Zaïnal
Concept & Development : Baudouin d'Aumeries
Co-Development & Prog : Marc-Olivier Méhu
Technical & hardware support : Manuel Goepfert

Contact : metmap@orbifly.com




SOURCES & CREDITS :

   NOAA